sensor_id;sensor_type;location;lat;lon;timestamp;temperature;humidity
70695;DHT22;58269;52.246;21.104;2023-01-05T00:00:07;14.39;60.50
70695;DHT22;58269;52.246;21.104;2023-01-05T00:02:12;14.21;61.23
70695;DHT22;58269;52.246;21.104;2023-01-05T00:04:14;14.61;60.49
70695;DHT22;58269;52.246;21.104;2023-01-05T00:06:16;14.47;60.56
70695;DHT22;58269;52.246;21.104;2023-01-05T00:08:18;14.56;60.10
70695;DHT22;58269;52.246;21.104;2023-01-05T00:10:19;14.59;60.00
70695;DHT22;58269;52.246;21.104;2023-01-05T00:12:39;14.69;59.76
70695;DHT22;58269;52.246;21.104;2023-01-05T00:14:59;14.68;59.96
70695;DHT22;58269;52.246;21.104;2023-01-05T00:17:20;14.80;59.73
70695;DHT22;58269;52.246;21.104;2023-01-05T00:19:40;14.76;59.51
70695;DHT22;58269;52.246;21.104;2023-01-05T00:22:00;14.87;59.13
70695;DHT22;58269;52.246;21.104;2023-01-05T00:24:20;14.27;56.41
70695;DHT22;58269;52.246;21.104;2023-01-05T00:26:21;13.28;63.22
70695;DHT22;58269;52.246;21.104;2023-01-05T00:28:23;13.33;64.14
70695;DHT22;58269;52.246;21.104;2023-01-05T00:30:28;13.79;62.80
70695;DHT22;58269;52.246;21.104;2023-01-05T00:32:30;14.17;61.76
70695;DHT22;58269;52.246;21.104;2023-01-05T00:34:32;14.39;61.54
70695;DHT22;58269;52.246;21.104;2023-01-05T00:36:33;14.42;61.22
70695;DHT22;58269;52.246;21.104;2023-01-05T00:38:34;14.59;60.67
70695;DHT22;58269;52.246;21.104;2023-01-05T00:40:36;14.73;60.42
70695;DHT22;58269;52.246;21.104;2023-01-05T00:42:37;14.90;59.80
70695;DHT22;58269;52.246;21.104;2023-01-05T00:44:39;15.03;59.65
70695;DHT22;58269;52.246;21.104;2023-01-05T00:46:40;15.03;59.01
70695;DHT22;58269;52.246;21.104;2023-01-05T00:48:41;14.29;58.48
70695;DHT22;58269;52.246;21.104;2023-01-05T00:50:45;13.45;61.14
70695;DHT22;58269;52.246;21.104;2023-01-05T00:52:48;13.04;65.07
70695;DHT22;58269;52.246;21.104;2023-01-05T00:54:49;13.64;64.16
70695;DHT22;58269;52.246;21.104;2023-01-05T00:56:51;13.79;63.35
70695;DHT22;58269;52.246;21.104;2023-01-05T00:58:53;14.39;62.26
70695;DHT22;58269;52.246;21.104;2023-01-05T01:00:55;14.53;61.26
70695;DHT22;58269;52.246;21.104;2023-01-05T01:02:56;14.71;60.50
70695;DHT22;58269;52.246;21.104;2023-01-05T01:04:58;14.87;60.10
70695;DHT22;58269;52.246;21.104;2023-01-05T01:06:59;14.96;60.27
70695;DHT22;58269;52.246;21.104;2023-01-05T01:09:01;15.07;59.98
70695;DHT22;58269;52.246;21.104;2023-01-05T01:11:04;15.07;59.66
70695;DHT22;58269;52.246;21.104;2023-01-05T01:13:06;15.21;59.39
70695;DHT22;58269;52.246;21.104;2023-01-05T01:15:08;14.68;59.06
70695;DHT22;58269;52.246;21.104;2023-01-05T01:17:09;13.79;62.14
70695;DHT22;58269;52.246;21.104;2023-01-05T01:19:17;13.30;62.69
70695;DHT22;58269;52.246;21.104;2023-01-05T01:21:16;13.81;63.48
70695;DHT22;58269;52.246;21.104;2023-01-05T01:23:17;14.47;62.88
70695;DHT22;58269;52.246;21.104;2023-01-05T01:25:19;14.68;60.72
70695;DHT22;58269;52.246;21.104;2023-01-05T01:27:20;14.87;60.77
70695;DHT22;58269;52.246;21.104;2023-01-05T01:29:22;15.03;59.88
70695;DHT22;58269;52.246;21.104;2023-01-05T01:31:24;15.09;59.68
70695;DHT22;58269;52.246;21.104;2023-01-05T01:33:26;15.15;59.80
70695;DHT22;58269;52.246;21.104;2023-01-05T01:35:28;15.18;58.93
70695;DHT22;58269;52.246;21.104;2023-01-05T01:37:29;14.63;59.19
70695;DHT22;58269;52.246;21.104;2023-01-05T01:39:31;13.73;61.58
70695;DHT22;58269;52.246;21.104;2023-01-05T01:41:35;13.47;64.01
70695;DHT22;58269;52.246;21.104;2023-01-05T01:43:49;13.91;63.32
70695;DHT22;58269;52.246;21.104;2023-01-05T01:45:52;14.39;62.06
70695;DHT22;58269;52.246;21.104;2023-01-05T01:47:56;14.78;61.34
70695;DHT22;58269;52.246;21.104;2023-01-05T01:50:03;14.86;60.40
70695;DHT22;58269;52.246;21.104;2023-01-05T01:52:03;15.07;60.79
70695;DHT22;58269;52.246;21.104;2023-01-05T01:54:08;15.20;60.07
70695;DHT22;58269;52.246;21.104;2023-01-05T01:56:12;15.06;59.53
70695;DHT22;58269;52.246;21.104;2023-01-05T01:58:15;14.42;60.13
70695;DHT22;58269;52.246;21.104;2023-01-05T02:00:18;13.61;62.10
70695;DHT22;58269;52.246;21.104;2023-01-05T02:02:23;13.67;64.13
70695;DHT22;58269;52.246;21.104;2023-01-05T02:04:26;14.27;63.16
70695;DHT22;58269;52.246;21.104;2023-01-05T02:06:28;14.69;62.08
70695;DHT22;58269;52.246;21.104;2023-01-05T02:08:29;14.79;60.99
70695;DHT22;58269;52.246;21.104;2023-01-05T02:13:07;15.17;60.05
70695;DHT22;58269;52.246;21.104;2023-01-05T02:29:01;14.32;64.27
70695;DHT22;58269;52.246;21.104;2023-01-05T02:31:05;14.63;62.20
70695;DHT22;58269;52.246;21.104;2023-01-05T02:40:25;15.61;60.28
70695;DHT22;58269;52.246;21.104;2023-01-05T02:42:27;15.57;58.97
70695;DHT22;58269;52.246;21.104;2023-01-05T02:44:31;14.96;59.81
70695;DHT22;58269;52.246;21.104;2023-01-05T02:46:33;14.04;61.96
70695;DHT22;58269;52.246;21.104;2023-01-05T02:48:35;13.38;63.70
70695;DHT22;58269;52.246;21.104;2023-01-05T02:50:49;13.80;64.77
70695;DHT22;58269;52.246;21.104;2023-01-05T02:55:16;14.94;61.92
70695;DHT22;58269;52.246;21.104;2023-01-05T02:57:25;15.25;61.64
70695;DHT22;58269;52.246;21.104;2023-01-05T02:59:40;15.37;59.78
70695;DHT22;58269;52.246;21.104;2023-01-05T03:01:40;15.47;59.73
70695;DHT22;58269;52.246;21.104;2023-01-05T03:03:56;15.18;59.31
70695;DHT22;58269;52.246;21.104;2023-01-05T03:06:07;14.32;61.93
70695;DHT22;58269;52.246;21.104;2023-01-05T03:08:10;14.00;63.13
70695;DHT22;58269;52.246;21.104;2023-01-05T03:10:16;14.62;63.05
70695;DHT22;58269;52.246;21.104;2023-01-05T03:12:37;15.13;61.18
70695;DHT22;58269;52.246;21.104;2023-01-05T03:15:07;15.14;60.06
70695;DHT22;58269;52.246;21.104;2023-01-05T03:17:10;15.44;60.25
70695;DHT22;58269;52.246;21.104;2023-01-05T03:19:15;15.50;59.65
70695;DHT22;58269;52.246;21.104;2023-01-05T03:21:36;15.43;58.93
70695;DHT22;58269;52.246;21.104;2023-01-05T03:23:57;14.61;58.55
70695;DHT22;58269;52.246;21.104;2023-01-05T03:26:17;13.72;58.03
70695;DHT22;58269;52.246;21.104;2023-01-05T03:28:49;13.07;61.73
70695;DHT22;58269;52.246;21.104;2023-01-05T03:34:11;12.06;62.47
70695;DHT22;58269;52.246;21.104;2023-01-05T03:36:30;11.75;70.26
70695;DHT22;58269;52.246;21.104;2023-01-05T03:38:41;12.53;69.90
70695;DHT22;58269;52.246;21.104;2023-01-05T03:40:43;13.69;68.86
70695;DHT22;58269;52.246;21.104;2023-01-05T03:42:46;14.32;64.30
70695;DHT22;58269;52.246;21.104;2023-01-05T03:44:48;14.69;62.64
70695;DHT22;58269;52.246;21.104;2023-01-05T03:46:50;15.04;61.44
70695;DHT22;58269;52.246;21.104;2023-01-05T03:48:52;15.09;61.10
70695;DHT22;58269;52.246;21.104;2023-01-05T03:50:54;15.06;60.96
70695;DHT22;58269;52.246;21.104;2023-01-05T03:52:56;15.20;61.05
70695;DHT22;58269;52.246;21.104;2023-01-05T03:54:57;15.43;60.89
70695;DHT22;58269;52.246;21.104;2023-01-05T03:56:59;15.62;61.14
70695;DHT22;58269;52.246;21.104;2023-01-05T03:59:01;15.55;59.11
70695;DHT22;58269;52.246;21.104;2023-01-05T04:01:03;15.20;59.49
70695;DHT22;58269;52.246;21.104;2023-01-05T04:03:06;14.22;61.52
70695;DHT22;58269;52.246;21.104;2023-01-05T04:05:09;13.70;64.11
70695;DHT22;58269;52.246;21.104;2023-01-05T04:07:11;14.29;63.70
70695;DHT22;58269;52.246;21.104;2023-01-05T04:09:13;14.82;62.39
70695;DHT22;58269;52.246;21.104;2023-01-05T04:11:17;15.10;60.97
70695;DHT22;58269;52.246;21.104;2023-01-05T04:13:30;15.31;60.83
70695;DHT22;58269;52.246;21.104;2023-01-05T04:15:31;15.40;59.13
70695;DHT22;58269;52.246;21.104;2023-01-05T04:17:33;14.86;59.89
70695;DHT22;58269;52.246;21.104;2023-01-05T04:19:35;13.91;62.26
70695;DHT22;58269;52.246;21.104;2023-01-05T04:21:36;13.76;63.89
70695;DHT22;58269;52.246;21.104;2023-01-05T04:23:37;14.31;62.79
70695;DHT22;58269;52.246;21.104;2023-01-05T04:25:39;14.73;61.56
70695;DHT22;58269;52.246;21.104;2023-01-05T04:27:48;15.11;61.21
70695;DHT22;58269;52.246;21.104;2023-01-05T04:29:49;15.27;60.37
70695;DHT22;58269;52.246;21.104;2023-01-05T04:31:51;15.25;59.66
70695;DHT22;58269;52.246;21.104;2023-01-05T04:33:52;14.68;60.44
70695;DHT22;58269;52.246;21.104;2023-01-05T04:35:55;13.94;61.42
70695;DHT22;58269;52.246;21.104;2023-01-05T04:37:59;13.40;63.05
70695;DHT22;58269;52.246;21.104;2023-01-05T04:40:00;13.81;64.03
70695;DHT22;58269;52.246;21.104;2023-01-05T04:42:02;14.38;63.43
70695;DHT22;58269;52.246;21.104;2023-01-05T04:44:05;14.65;61.38
70695;DHT22;58269;52.246;21.104;2023-01-05T04:46:06;14.90;60.61
70695;DHT22;58269;52.246;21.104;2023-01-05T04:48:08;15.06;60.14
70695;DHT22;58269;52.246;21.104;2023-01-05T04:50:09;15.18;59.73
70695;DHT22;58269;52.246;21.104;2023-01-05T04:52:11;15.18;59.09
70695;DHT22;58269;52.246;21.104;2023-01-05T04:54:13;14.59;59.34
70695;DHT22;58269;52.246;21.104;2023-01-05T04:56:15;13.74;59.02
70695;DHT22;58269;52.246;21.104;2023-01-05T04:58:18;13.18;64.62
70695;DHT22;58269;52.246;21.104;2023-01-05T05:00:20;13.76;64.41
70695;DHT22;58269;52.246;21.104;2023-01-05T05:02:23;14.15;62.81
70695;DHT22;58269;52.246;21.104;2023-01-05T05:04:26;14.36;61.68
70695;DHT22;58269;52.246;21.104;2023-01-05T05:06:27;14.41;61.39
70695;DHT22;58269;52.246;21.104;2023-01-05T05:08:29;14.76;60.81
70695;DHT22;58269;52.246;21.104;2023-01-05T05:10:31;14.53;60.99
70695;DHT22;58269;52.246;21.104;2023-01-05T05:12:33;14.53;60.92
70695;DHT22;58269;52.246;21.104;2023-01-05T05:14:34;14.79;61.23
70695;DHT22;58269;52.246;21.104;2023-01-05T05:16:36;14.79;59.97
70695;DHT22;58269;52.246;21.104;2023-01-05T05:18:39;14.92;59.70
70695;DHT22;58269;52.246;21.104;2023-01-05T05:20:43;15.06;59.78
70695;DHT22;58269;52.246;21.104;2023-01-05T05:22:45;14.89;58.87
70695;DHT22;58269;52.246;21.104;2023-01-05T05:24:49;14.14;60.21
70695;DHT22;58269;52.246;21.104;2023-01-05T05:26:50;13.33;64.04
70695;DHT22;58269;52.246;21.104;2023-01-05T05:28:51;13.59;63.94
70695;DHT22;58269;52.246;21.104;2023-01-05T05:30:54;14.08;63.07
70695;DHT22;58269;52.246;21.104;2023-01-05T05:32:58;14.42;61.57
70695;DHT22;58269;52.246;21.104;2023-01-05T05:34:59;14.73;61.31
70695;DHT22;58269;52.246;21.104;2023-01-05T05:37:00;14.65;60.50
70695;DHT22;58269;52.246;21.104;2023-01-05T05:39:02;14.79;60.30
70695;DHT22;58269;52.246;21.104;2023-01-05T05:41:03;14.83;60.41
70695;DHT22;58269;52.246;21.104;2023-01-05T05:43:04;14.82;60.44
70695;DHT22;58269;52.246;21.104;2023-01-05T05:45:07;14.90;59.96
70695;DHT22;58269;52.246;21.104;2023-01-05T05:47:08;14.99;60.02
70695;DHT22;58269;52.246;21.104;2023-01-05T05:49:09;14.90;59.80
70695;DHT22;58269;52.246;21.104;2023-01-05T05:51:10;15.04;59.48
70695;DHT22;58269;52.246;21.104;2023-01-05T05:53:12;14.99;59.51
70695;DHT22;58269;52.246;21.104;2023-01-05T05:55:13;15.07;59.14
70695;DHT22;58269;52.246;21.104;2023-01-05T05:57:15;14.47;59.27
70695;DHT22;58269;52.246;21.104;2023-01-05T05:59:17;13.60;61.46
70695;DHT22;58269;52.246;21.104;2023-01-05T06:01:18;12.88;63.96
70695;DHT22;58269;52.246;21.104;2023-01-05T06:03:19;12.92;65.20
70695;DHT22;58269;52.246;21.104;2023-01-05T06:05:21;13.56;64.66
70695;DHT22;58269;52.246;21.104;2023-01-05T06:07:22;14.07;63.79
70695;DHT22;58269;52.246;21.104;2023-01-05T06:09:24;14.27;62.20
70695;DHT22;58269;52.246;21.104;2023-01-05T06:11:26;14.55;61.54
70695;DHT22;58269;52.246;21.104;2023-01-05T06:13:27;14.69;60.92
70695;DHT22;58269;52.246;21.104;2023-01-05T06:15:28;14.78;59.93
70695;DHT22;58269;52.246;21.104;2023-01-05T06:17:29;14.89;59.87
70695;DHT22;58269;52.246;21.104;2023-01-05T06:19:31;14.65;59.20
70695;DHT22;58269;52.246;21.104;2023-01-05T06:21:32;14.02;59.24
70695;DHT22;58269;52.246;21.104;2023-01-05T06:23:33;13.28;59.57
70695;DHT22;58269;52.246;21.104;2023-01-05T06:25:35;12.64;64.72
70695;DHT22;58269;52.246;21.104;2023-01-05T06:27:36;12.94;65.19
70695;DHT22;58269;52.246;21.104;2023-01-05T06:29:37;13.69;63.95
70695;DHT22;58269;52.246;21.104;2023-01-05T06:31:38;14.14;61.59
70695;DHT22;58269;52.246;21.104;2023-01-05T06:33:40;14.29;60.98
70695;DHT22;58269;52.246;21.104;2023-01-05T06:35:41;14.32;60.33
70695;DHT22;58269;52.246;21.104;2023-01-05T06:37:42;14.35;60.27
70695;DHT22;58269;52.246;21.104;2023-01-05T06:39:43;14.47;59.84
70695;DHT22;58269;52.246;21.104;2023-01-05T06:41:45;14.56;59.97
70695;DHT22;58269;52.246;21.104;2023-01-05T06:43:47;14.71;59.61
70695;DHT22;58269;52.246;21.104;2023-01-05T06:45:48;14.86;59.29
70695;DHT22;58269;52.246;21.104;2023-01-05T06:47:50;14.45;58.43
70695;DHT22;58269;52.246;21.104;2023-01-05T06:49:51;13.66;58.86
70695;DHT22;58269;52.246;21.104;2023-01-05T06:51:52;12.97;61.90
70695;DHT22;58269;52.246;21.104;2023-01-05T06:53:54;12.85;64.55
70695;DHT22;58269;52.246;21.104;2023-01-05T06:55:55;13.50;63.67
70695;DHT22;58269;52.246;21.104;2023-01-05T06:57:57;14.05;62.77
70695;DHT22;58269;52.246;21.104;2023-01-05T06:59:58;14.48;62.27
70695;DHT22;58269;52.246;21.104;2023-01-05T07:01:59;14.68;61.13
70695;DHT22;58269;52.246;21.104;2023-01-05T07:04:01;14.79;59.75
70695;DHT22;58269;52.246;21.104;2023-01-05T07:06:02;14.84;59.06
70695;DHT22;58269;52.246;21.104;2023-01-05T07:08:04;14.27;56.30
70695;DHT22;58269;52.246;21.104;2023-01-05T07:10:06;13.43;62.08
70695;DHT22;58269;52.246;21.104;2023-01-05T07:12:07;13.08;62.64
70695;DHT22;58269;52.246;21.104;2023-01-05T07:14:09;13.64;63.19
70695;DHT22;58269;52.246;21.104;2023-01-05T07:16:10;14.20;62.59
70695;DHT22;58269;52.246;21.104;2023-01-05T07:18:12;14.51;60.62
70695;DHT22;58269;52.246;21.104;2023-01-05T07:20:13;14.75;61.00
70695;DHT22;58269;52.246;21.104;2023-01-05T07:22:14;14.90;60.33
70695;DHT22;58269;52.246;21.104;2023-01-05T07:24:16;14.75;58.32
70695;DHT22;58269;52.246;21.104;2023-01-05T07:26:17;14.05;58.90
70695;DHT22;58269;52.246;21.104;2023-01-05T07:28:18;13.29;63.00
70695;DHT22;58269;52.246;21.104;2023-01-05T07:30:20;13.25;64.07
70695;DHT22;58269;52.246;21.104;2023-01-05T07:32:21;13.96;63.60
70695;DHT22;58269;52.246;21.104;2023-01-05T07:34:22;14.35;61.14
70695;DHT22;58269;52.246;21.104;2023-01-05T07:36:24;14.62;61.24
70695;DHT22;58269;52.246;21.104;2023-01-05T07:38:25;14.78;59.97
70695;DHT22;58269;52.246;21.104;2023-01-05T07:40:26;14.93;60.25
70695;DHT22;58269;52.246;21.104;2023-01-05T07:42:28;15.06;59.77
70695;DHT22;58269;52.246;21.104;2023-01-05T07:44:30;15.06;58.87
70695;DHT22;58269;52.246;21.104;2023-01-05T07:46:32;14.51;57.25
70695;DHT22;58269;52.246;21.104;2023-01-05T07:48:34;13.67;60.39
70695;DHT22;58269;52.246;21.104;2023-01-05T07:50:35;13.21;62.62
70695;DHT22;58269;52.246;21.104;2023-01-05T07:52:36;13.77;63.22
70695;DHT22;58269;52.246;21.104;2023-01-05T07:54:39;14.35;62.71
70695;DHT22;58269;52.246;21.104;2023-01-05T07:56:40;14.68;61.50
70695;DHT22;58269;52.246;21.104;2023-01-05T07:58:41;14.80;60.19
70695;DHT22;58269;52.246;21.104;2023-01-05T08:00:43;15.00;59.92
70695;DHT22;58269;52.246;21.104;2023-01-05T08:02:44;15.15;59.64
70695;DHT22;58269;52.246;21.104;2023-01-05T08:04:46;15.04;57.70
70695;DHT22;58269;52.246;21.104;2023-01-05T08:06:47;14.21;59.70
70695;DHT22;58269;52.246;21.104;2023-01-05T08:08:49;13.46;60.61
70695;DHT22;58269;52.246;21.104;2023-01-05T08:10:50;12.84;61.44
70695;DHT22;58269;52.246;21.104;2023-01-05T08:12:51;13.05;65.30
70695;DHT22;58269;52.246;21.104;2023-01-05T08:15:11;13.93;64.34
70695;DHT22;58269;52.246;21.104;2023-01-05T08:17:12;14.38;61.93
70695;DHT22;58269;52.246;21.104;2023-01-05T08:19:13;14.63;61.43
70695;DHT22;58269;52.246;21.104;2023-01-05T08:21:15;14.82;60.14
70695;DHT22;58269;52.246;21.104;2023-01-05T08:23:16;14.99;60.61
70695;DHT22;58269;52.246;21.104;2023-01-05T08:25:18;15.18;60.51
70695;DHT22;58269;52.246;21.104;2023-01-05T08:27:19;15.15;58.39
70695;DHT22;58269;52.246;21.104;2023-01-05T08:29:21;14.48;58.94
70695;DHT22;58269;52.246;21.104;2023-01-05T08:31:24;13.64;61.63
70695;DHT22;58269;52.246;21.104;2023-01-05T08:33:26;12.98;65.00
70695;DHT22;58269;52.246;21.104;2023-01-05T08:35:28;13.30;65.18
70695;DHT22;58269;52.246;21.104;2023-01-05T08:37:29;13.96;63.83
70695;DHT22;58269;52.246;21.104;2023-01-05T08:39:31;14.52;62.72
70695;DHT22;58269;52.246;21.104;2023-01-05T08:41:34;14.72;60.65
70695;DHT22;58269;52.246;21.104;2023-01-05T08:43:36;14.82;60.54
70695;DHT22;58269;52.246;21.104;2023-01-05T08:45:37;15.04;60.12
70695;DHT22;58269;52.246;21.104;2023-01-05T08:47:39;15.10;58.92
70695;DHT22;58269;52.246;21.104;2023-01-05T08:49:40;14.48;59.58
70695;DHT22;58269;52.246;21.104;2023-01-05T08:51:43;13.66;61.02
70695;DHT22;58269;52.246;21.104;2023-01-05T08:53:44;13.15;64.15
70695;DHT22;58269;52.246;21.104;2023-01-05T08:55:46;13.84;63.95
70695;DHT22;58269;52.246;21.104;2023-01-05T08:57:48;14.48;62.37
70695;DHT22;58269;52.246;21.104;2023-01-05T08:59:49;14.84;60.23
70695;DHT22;58269;52.246;21.104;2023-01-05T09:01:50;15.03;59.90
70695;DHT22;58269;52.246;21.104;2023-01-05T09:03:52;15.13;59.03
70695;DHT22;58269;52.246;21.104;2023-01-05T09:05:53;14.63;59.15
70695;DHT22;58269;52.246;21.104;2023-01-05T09:07:54;13.81;59.27
70695;DHT22;58269;52.246;21.104;2023-01-05T09:09:56;13.15;62.84
70695;DHT22;58269;52.246;21.104;2023-01-05T09:11:57;13.39;63.94
70695;DHT22;58269;52.246;21.104;2023-01-05T09:13:59;14.20;63.79
70695;DHT22;58269;52.246;21.104;2023-01-05T09:16:07;14.65;61.30
70695;DHT22;58269;52.246;21.104;2023-01-05T09:18:09;14.96;60.72
70695;DHT22;58269;52.246;21.104;2023-01-05T09:20:11;15.17;60.10
70695;DHT22;58269;52.246;21.104;2023-01-05T09:22:12;14.93;58.26
70695;DHT22;58269;52.246;21.104;2023-01-05T09:24:14;14.11;59.68
70695;DHT22;58269;52.246;21.104;2023-01-05T09:26:15;13.29;61.38
70695;DHT22;58269;52.246;21.104;2023-01-05T09:28:16;12.79;63.17
70695;DHT22;58269;52.246;21.104;2023-01-05T09:30:18;13.47;63.75
70695;DHT22;58269;52.246;21.104;2023-01-05T09:32:19;14.12;60.90
70695;DHT22;58269;52.246;21.104;2023-01-05T09:34:21;14.58;59.49
70695;DHT22;58269;52.246;21.104;2023-01-05T09:36:23;14.39;57.75
70695;DHT22;58269;52.246;21.104;2023-01-05T09:38:25;13.69;58.02
70695;DHT22;58269;52.246;21.104;2023-01-05T09:40:26;12.88;59.28
70695;DHT22;58269;52.246;21.104;2023-01-05T09:42:28;12.30;60.79
70695;DHT22;58269;52.246;21.104;2023-01-05T09:44:51;12.16;64.61
70695;DHT22;58269;52.246;21.104;2023-01-05T09:46:56;13.15;62.81
70695;DHT22;58269;52.246;21.104;2023-01-05T09:48:59;13.90;61.84
70695;DHT22;58269;52.246;21.104;2023-01-05T09:51:01;14.42;60.21
70695;DHT22;58269;52.246;21.104;2023-01-05T09:53:03;14.53;57.50
70695;DHT22;58269;52.246;21.104;2023-01-05T09:55:13;13.87;56.80
70695;DHT22;58269;52.246;21.104;2023-01-05T09:57:21;13.02;59.22
70695;DHT22;58269;52.246;21.104;2023-01-05T09:59:35;12.40;60.40
70695;DHT22;58269;52.246;21.104;2023-01-05T10:01:37;11.85;64.07
70695;DHT22;58269;52.246;21.104;2023-01-05T10:05:56;13.12;63.92
70695;DHT22;58269;52.246;21.104;2023-01-05T10:08:04;13.76;60.95
70695;DHT22;58269;52.246;21.104;2023-01-05T10:10:58;14.27;59.83
70695;DHT22;58269;52.246;21.104;2023-01-05T10:12:28;14.48;58.37
70695;DHT22;58269;52.246;21.104;2023-01-05T10:14:52;13.60;57.98
70695;DHT22;58269;52.246;21.104;2023-01-05T10:16:53;12.92;59.29
70695;DHT22;58269;52.246;21.104;2023-01-05T10:18:55;12.33;59.44
70695;DHT22;58269;52.246;21.104;2023-01-05T10:23:30;11.51;63.66
70695;DHT22;58269;52.246;21.104;2023-01-05T10:25:41;12.41;64.71
70695;DHT22;58269;52.246;21.104;2023-01-05T10:37:14;13.02;58.64
70695;DHT22;58269;52.246;21.104;2023-01-05T10:43:54;11.58;59.07
70695;DHT22;58269;52.246;21.104;2023-01-05T10:45:51;11.34;62.18
70695;DHT22;58269;52.246;21.104;2023-01-05T10:47:53;12.05;65.41
70695;DHT22;58269;52.246;21.104;2023-01-05T10:49:54;13.09;65.98
70695;DHT22;58269;52.246;21.104;2023-01-05T10:51:58;13.79;61.48
70695;DHT22;58269;52.246;21.104;2023-01-05T10:54:00;14.24;61.07
70695;DHT22;58269;52.246;21.104;2023-01-05T10:56:05;14.58;58.06
70695;DHT22;58269;52.246;21.104;2023-01-05T10:58:23;14.29;56.92
70695;DHT22;58269;52.246;21.104;2023-01-05T11:00:40;13.46;58.23
70695;DHT22;58269;52.246;21.104;2023-01-05T11:05:19;12.20;59.17
70695;DHT22;58269;52.246;21.104;2023-01-05T11:07:09;11.90;63.70
70695;DHT22;58269;52.246;21.104;2023-01-05T11:09:22;12.75;64.20
70695;DHT22;58269;52.246;21.104;2023-01-05T11:11:25;13.73;61.41
70695;DHT22;58269;52.246;21.104;2023-01-05T11:13:29;14.18;59.37
70695;DHT22;58269;52.246;21.104;2023-01-05T11:15:34;13.80;57.49
70695;DHT22;58269;52.246;21.104;2023-01-05T11:17:36;13.07;58.43
70695;DHT22;58269;52.246;21.104;2023-01-05T11:19:44;12.46;60.51
70695;DHT22;58269;52.246;21.104;2023-01-05T11:21:46;11.95;62.34
70695;DHT22;58269;52.246;21.104;2023-01-05T11:23:53;12.30;63.45
70695;DHT22;58269;52.246;21.104;2023-01-05T11:25:57;13.36;63.23
70695;DHT22;58269;52.246;21.104;2023-01-05T11:28:12;14.08;59.94
70695;DHT22;58269;52.246;21.104;2023-01-05T11:30:18;14.12;57.70
70695;DHT22;58269;52.246;21.104;2023-01-05T11:32:20;13.47;57.52
70695;DHT22;58269;52.246;21.104;2023-01-05T11:36:33;12.30;60.70
70695;DHT22;58269;52.246;21.104;2023-01-05T11:38:35;11.93;59.82
70695;DHT22;58269;52.246;21.104;2023-01-05T11:40:36;11.95;63.80
70695;DHT22;58269;52.246;21.104;2023-01-05T11:42:39;12.98;64.15
70695;DHT22;58269;52.246;21.104;2023-01-05T11:44:46;13.79;58.99
70695;DHT22;58269;52.246;21.104;2023-01-05T11:46:48;13.90;57.89
70695;DHT22;58269;52.246;21.104;2023-01-05T11:48:53;13.29;58.72
70695;DHT22;58269;52.246;21.104;2023-01-05T11:50:55;12.67;59.31
70695;DHT22;58269;52.246;21.104;2023-01-05T11:53:01;12.17;61.27
70695;DHT22;58269;52.246;21.104;2023-01-05T11:57:25;11.51;63.52
70695;DHT22;58269;52.246;21.104;2023-01-05T11:59:28;12.13;65.75
70695;DHT22;58269;52.246;21.104;2023-01-05T12:13:42;12.46;64.88
70695;DHT22;58269;52.246;21.104;2023-01-05T12:16:14;13.45;61.05
70695;DHT22;58269;52.246;21.104;2023-01-05T12:25:01;12.46;58.30
70695;DHT22;58269;52.246;21.104;2023-01-05T12:43:08;12.71;58.86
70695;DHT22;58269;52.246;21.104;2023-01-05T12:52:26;11.53;65.15
70695;DHT22;58269;52.246;21.104;2023-01-05T12:54:44;12.63;62.13
70695;DHT22;58269;52.246;21.104;2023-01-05T12:56:52;13.53;60.95
70695;DHT22;58269;52.246;21.104;2023-01-05T12:59:04;13.51;57.80
70695;DHT22;58269;52.246;21.104;2023-01-05T13:01:15;12.70;58.07
70695;DHT22;58269;52.246;21.104;2023-01-05T13:03:29;12.12;58.24
70695;DHT22;58269;52.246;21.104;2023-01-05T13:05:41;11.64;58.30
70695;DHT22;58269;52.246;21.104;2023-01-05T13:07:49;11.21;61.74
70695;DHT22;58269;52.246;21.104;2023-01-05T13:09:55;11.35;63.77
70695;DHT22;58269;52.246;21.104;2023-01-05T13:11:58;12.46;64.03
70695;DHT22;58269;52.246;21.104;2023-01-05T13:14:02;13.33;61.46
70695;DHT22;58269;52.246;21.104;2023-01-05T13:16:18;13.59;56.43
70695;DHT22;58269;52.246;21.104;2023-01-05T13:18:19;12.98;56.87
70695;DHT22;58269;52.246;21.104;2023-01-05T13:20:49;12.33;56.82
70695;DHT22;58269;52.246;21.104;2023-01-05T13:22:48;11.66;59.12
70695;DHT22;58269;52.246;21.104;2023-01-05T13:26:59;11.10;62.84
70695;DHT22;58269;52.246;21.104;2023-01-05T13:29:01;12.05;62.69
70695;DHT22;58269;52.246;21.104;2023-01-05T13:33:22;12.82;57.56
70695;DHT22;58269;52.246;21.104;2023-01-05T13:35:37;12.19;56.20
70695;DHT22;58269;52.246;21.104;2023-01-05T13:54:38;11.25;60.59
70695;DHT22;58269;52.246;21.104;2023-01-05T13:56:39;10.79;62.61
70695;DHT22;58269;52.246;21.104;2023-01-05T13:58:58;11.07;63.42
70695;DHT22;58269;52.246;21.104;2023-01-05T14:01:02;12.17;61.14
70695;DHT22;58269;52.246;21.104;2023-01-05T14:03:23;12.64;58.43
70695;DHT22;58269;52.246;21.104;2023-01-05T14:05:31;12.05;58.42
70695;DHT22;58269;52.246;21.104;2023-01-05T14:07:32;11.41;60.73
70695;DHT22;58269;52.246;21.104;2023-01-05T14:09:44;10.87;62.47
70695;DHT22;58269;52.246;21.104;2023-01-05T14:14:25;12.20;61.50
70695;DHT22;58269;52.246;21.104;2023-01-05T14:18:49;12.79;56.74
70695;DHT22;58269;52.246;21.104;2023-01-05T14:20:51;12.06;58.56
70695;DHT22;58269;52.246;21.104;2023-01-05T14:22:54;11.35;60.76
70695;DHT22;58269;52.246;21.104;2023-01-05T14:24:55;10.93;60.78
70695;DHT22;58269;52.246;21.104;2023-01-05T14:27:15;10.53;62.41
70695;DHT22;58269;52.246;21.104;2023-01-05T14:29:39;11.03;64.09
70695;DHT22;58269;52.246;21.104;2023-01-05T14:31:34;12.09;63.25
70695;DHT22;58269;52.246;21.104;2023-01-05T14:35:53;12.66;57.11
70695;DHT22;58269;52.246;21.104;2023-01-05T14:40:00;11.45;55.94
70695;DHT22;58269;52.246;21.104;2023-01-05T14:44:25;10.56;61.49
70695;DHT22;58269;52.246;21.104;2023-01-05T14:46:26;10.82;63.98
70695;DHT22;58269;52.246;21.104;2023-01-05T14:48:33;11.84;65.62
70695;DHT22;58269;52.246;21.104;2023-01-05T14:50:38;12.60;60.21
70695;DHT22;58269;52.246;21.104;2023-01-05T14:55:17;12.12;58.25
70695;DHT22;58269;52.246;21.104;2023-01-05T14:57:33;11.45;59.86
70695;DHT22;58269;52.246;21.104;2023-01-05T14:59:24;10.92;61.56
70695;DHT22;58269;52.246;21.104;2023-01-05T15:01:33;10.55;63.65
70695;DHT22;58269;52.246;21.104;2023-01-05T15:03:52;11.31;64.30